Time;durP1;ratioP1;P1;durP2;ratioP2;P2;SDS_P1;SDS_P2;PMS_P1;PMS_P2;Temp;Humidity;BMP_temperature;BMP_pressure;BME280_temperature;BME280_humidity;BME280_pressure;Samples;Min_cycle;Max_cycle;Signal;HPM_P1;HPM_P2
2022/03/14 00:02:04;;;;;;;25.50;14.13;;;7.50;92.10;;;;;;5009710;28;20060;-61
2022/03/14 00:05:13;;;;;;;23.98;14.27;;;7.50;92.40;;;;;;5010303;28;20552;-60
2022/03/14 00:08:18;;;;;;;19.95;13.00;;;7.40;92.40;;;;;;5009218;28;20045;-60
2022/03/14 00:11:23;;;;;;;24.67;14.07;;;7.50;92.70;;;;;;5010057;28;20057;-60
2022/03/14 00:14:28;;;;;;;24.05;14.20;;;7.40;92.90;;;;;;5009835;28;20113;-60
2022/03/14 00:17:32;;;;;;;28.67;15.10;;;7.40;93.20;;;;;;5010221;28;20057;-60
2022/03/14 00:20:36;;;;;;;26.52;15.18;;;7.40;93.20;;;;;;5009794;28;20041;-60
2022/03/14 00:23:40;;;;;;;33.05;14.40;;;7.40;93.10;;;;;;5010157;28;20048;-60
2022/03/14 00:26:44;;;;;;;21.67;13.80;;;7.50;93.00;;;;;;5009847;28;20053;-60
2022/03/14 00:29:48;;;;;;;23.90;14.25;;;7.60;92.00;;;;;;5009668;28;20393;-60
2022/03/14 00:32:53;;;;;;;19.33;12.15;;;7.60;91.70;;;;;;5020225;28;20507;-61
2022/03/14 00:35:57;;;;;;;23.30;13.10;;;7.70;91.60;;;;;;5010340;28;20056;-60
2022/03/14 00:39:01;;;;;;;23.73;13.48;;;7.70;91.80;;;;;;5010292;28;20061;-60
2022/03/14 00:42:05;;;;;;;19.80;11.38;;;7.70;92.30;;;;;;5009980;28;20057;-61
2022/03/14 00:45:09;;;;;;;20.50;11.68;;;7.60;91.80;;;;;;5010261;28;20045;-61
2022/03/14 00:48:13;;;;;;;22.55;12.95;;;7.60;92.30;;;;;;5010209;28;20041;-61
2022/03/14 00:51:17;;;;;;;21.92;12.10;;;7.50;92.40;;;;;;5009873;28;20502;-60
2022/03/14 00:54:21;;;;;;;22.45;12.55;;;7.50;92.80;;;;;;5010028;28;20045;-61
2022/03/14 00:57:25;;;;;;;22.70;12.68;;;7.50;92.50;;;;;;5010665;28;20041;-60
2022/03/14 01:00:30;;;;;;;21.38;11.93;;;7.50;92.00;;;;;;5009711;28;20049;-61
2022/03/14 01:03:35;;;;;;;22.58;12.60;;;7.50;91.80;;;;;;5010642;28;20065;-60
2022/03/14 01:06:39;;;;;;;20.88;12.85;;;7.50;92.00;;;;;;5010169;28;20096;-61
2022/03/14 01:09:43;;;;;;;28.88;14.23;;;7.50;92.00;;;;;;5010048;28;20053;-60
2022/03/14 01:12:48;;;;;;;26.88;13.77;;;7.40;91.30;;;;;;5009712;28;20049;-61
2022/03/14 01:15:52;;;;;;;23.10;13.95;;;7.40;91.80;;;;;;5010071;28;20499;-61
2022/03/14 01:18:56;;;;;;;21.65;14.05;;;7.30;91.60;;;;;;5011507;28;20519;-60
2022/03/14 01:22:00;;;;;;;24.00;14.65;;;7.30;91.70;;;;;;5013282;28;20053;-60
2022/03/14 01:25:05;;;;;;;30.30;15.48;;;7.00;91.80;;;;;;5013501;28;20049;-60
2022/03/14 01:28:09;;;;;;;28.17;13.45;;;6.80;92.20;;;;;;5012924;28;20048;-60
2022/03/14 01:31:13;;;;;;;22.58;14.15;;;6.90;92.70;;;;;;5023043;28;20049;-60
2022/03/14 01:34:19;;;;;;;36.10;19.75;;;6.90;92.90;;;;;;5013118;28;20421;-61
2022/03/14 01:37:23;;;;;;;45.22;22.00;;;6.90;93.10;;;;;;5013493;28;20057;-60
2022/03/14 01:40:28;;;;;;;36.47;20.58;;;6.90;93.40;;;;;;5012626;28;20503;-60
2022/03/14 01:43:32;;;;;;;24.88;14.77;;;6.90;94.10;;;;;;5013388;28;20053;-60
2022/03/14 01:46:36;;;;;;;20.27;13.50;;;6.90;94.20;;;;;;5012839;28;20052;-61
2022/03/14 01:49:45;;;;;;;23.02;15.75;;;7.00;94.10;;;;;;5012755;28;20401;-60
2022/03/14 01:52:49;;;;;;;28.02;15.85;;;7.00;94.50;;;;;;5012451;28;20041;-60
2022/03/14 01:55:53;;;;;;;26.10;14.93;;;6.90;94.30;;;;;;5012606;28;20037;-60
2022/03/14 01:58:58;;;;;;;24.13;15.20;;;6.80;94.60;;;;;;5012581;28;20488;-60
2022/03/14 02:02:02;;;;;;;28.42;14.95;;;6.70;95.00;;;;;;5011825;28;20500;-61
2022/03/14 02:05:06;;;;;;;29.20;15.65;;;6.60;95.80;;;;;;5012659;28;20417;-61
2022/03/14 02:08:10;;;;;;;27.05;15.90;;;6.50;96.70;;;;;;5012454;28;20437;-60
2022/03/14 02:11:14;;;;;;;26.38;15.45;;;6.50;97.00;;;;;;5011636;28;20049;-61
2022/03/14 02:14:18;;;;;;;27.05;14.15;;;6.50;97.20;;;;;;5012678;28;20045;-61
2022/03/14 02:17:22;;;;;;;29.48;17.05;;;6.60;97.20;;;;;;5012593;28;20060;-61
2022/03/14 02:20:26;;;;;;;26.17;15.52;;;6.70;97.20;;;;;;5012103;28;20056;-61
2022/03/14 02:23:33;;;;;;;25.98;15.70;;;6.70;97.30;;;;;;5012336;28;20053;-62
2022/03/14 02:26:39;;;;;;;23.88;15.10;;;6.80;97.70;;;;;;5011911;28;20048;-61
2022/03/14 02:29:44;;;;;;;23.48;15.55;;;6.70;97.70;;;;;;5011310;28;20057;-61
2022/03/14 02:32:49;;;;;;;23.98;14.82;;;6.70;97.90;;;;;;5011544;28;20041;-61
2022/03/14 02:35:53;;;;;;;23.23;13.68;;;6.70;98.10;;;;;;5011875;28;20049;-62
2022/03/14 02:38:57;;;;;;;26.30;14.55;;;6.70;97.70;;;;;;5012361;28;20413;-62
2022/03/14 02:42:03;;;;;;;22.40;13.10;;;6.70;97.60;;;;;;5010943;28;20048;-61
2022/03/14 02:45:09;;;;;;;21.77;13.30;;;6.80;97.20;;;;;;5011929;28;20541;-61
2022/03/14 02:48:14;;;;;;;21.85;13.27;;;6.80;97.00;;;;;;5011625;28;20048;-61
2022/03/14 02:51:18;;;;;;;22.80;12.55;;;6.90;96.50;;;;;;5010870;28;20080;-61
2022/03/14 02:54:22;;;;;;;18.63;11.90;;;6.90;96.30;;;;;;5011877;28;20045;-60
2022/03/14 02:57:28;;;;;;;18.05;10.77;;;7.00;96.30;;;;;;5011296;28;20068;-61
2022/03/14 03:00:35;;;;;;;20.83;12.63;;;7.00;96.00;;;;;;5010961;28;20056;-61
2022/03/14 03:03:39;;;;;;;21.50;11.25;;;7.10;96.90;;;;;;5011422;28;20053;-61
2022/03/14 03:06:44;;;;;;;21.35;11.57;;;7.00;96.60;;;;;;5011536;28;20393;-61
2022/03/14 03:09:49;;;;;;;17.33;11.68;;;7.00;97.20;;;;;;5011164;28;20045;-61
2022/03/14 03:12:53;;;;;;;17.15;10.93;;;7.10;96.20;;;;;;5010906;28;20045;-60
2022/03/14 03:15:58;;;;;;;22.60;11.90;;;7.10;95.90;;;;;;5011239;28;20049;-60
2022/03/14 03:19:03;;;;;;;22.52;12.05;;;7.00;96.10;;;;;;5010813;28;20408;-61
2022/03/14 03:22:07;;;;;;;17.58;11.18;;;7.00;96.80;;;;;;5010421;28;20049;-60
2022/03/14 03:25:11;;;;;;;20.05;11.45;;;7.00;97.10;;;;;;5011074;28;20053;-60
2022/03/14 03:28:15;;;;;;;22.75;12.25;;;7.00;97.10;;;;;;5010156;28;20049;-61
2022/03/14 03:31:20;;;;;;;20.42;13.20;;;6.90;97.50;;;;;;5010378;28;20068;-62
2022/03/14 03:34:24;;;;;;;20.40;11.88;;;6.90;97.40;;;;;;5010926;28;20056;-61
2022/03/14 03:37:28;;;;;;;20.50;12.63;;;6.80;96.40;;;;;;5010969;28;20057;-61
2022/03/14 03:40:33;;;;;;;20.65;13.23;;;6.90;97.20;;;;;;5010267;28;20519;-61
2022/03/14 03:43:37;;;;;;;58.95;23.25;;;6.90;97.40;;;;;;5010159;28;20385;-61
2022/03/14 03:46:41;;;;;;;32.70;16.02;;;6.90;97.20;;;;;;5010501;28;20053;-62
2022/03/14 03:49:45;;;;;;;22.67;13.70;;;7.00;97.20;;;;;;5010155;28;20057;-61
2022/03/14 03:52:49;;;;;;;22.77;13.77;;;7.00;98.20;;;;;;5009946;28;20041;-61
2022/03/14 03:55:54;;;;;;;25.73;13.93;;;6.90;98.30;;;;;;5010595;28;20053;-61
2022/03/14 03:59:01;;;;;;;19.38;13.13;;;6.90;98.40;;;;;;5020777;28;20045;-61
2022/03/14 04:02:05;;;;;;;19.55;12.68;;;7.00;97.90;;;;;;5009872;28;20049;-61
2022/03/14 04:05:10;;;;;;;26.20;13.60;;;7.00;97.30;;;;;;5009198;28;20053;-61
2022/03/14 04:08:14;;;;;;;20.35;13.88;;;7.10;97.60;;;;;;5010631;28;20528;-61
2022/03/14 04:11:19;;;;;;;21.00;12.15;;;7.10;98.20;;;;;;5009776;28;20041;-60
2022/03/14 04:14:23;;;;;;;19.48;12.13;;;6.90;98.80;;;;;;5010362;28;20053;-61
2022/03/14 04:17:28;;;;;;;19.83;11.80;;;6.70;99.80;;;;;;5010548;28;20037;-61
2022/03/14 04:20:31;;;;;;;17.52;10.98;;;6.60;99.90;;;;;;5009979;28;20041;-61
2022/03/14 04:23:35;;;;;;;22.38;12.23;;;6.50;99.90;;;;;;5010496;28;20037;-60
2022/03/14 04:26:39;;;;;;;18.98;11.23;;;6.40;99.90;;;;;;5010299;28;20049;-61
2022/03/14 04:29:43;;;;;;;19.75;12.80;;;6.30;99.90;;;;;;5009964;28;20057;-61
2022/03/14 04:32:48;;;;;;;22.20;12.15;;;6.40;99.90;;;;;;5009592;28;20053;-61
2022/03/14 04:35:52;;;;;;;18.50;11.38;;;6.30;99.90;;;;;;5010207;28;20045;-60
2022/03/14 04:38:56;;;;;;;17.05;11.55;;;6.50;99.90;;;;;;5010005;28;20049;-61
2022/03/14 04:42:00;;;;;;;20.50;11.18;;;6.50;99.90;;;;;;5009500;28;20049;-61
2022/03/14 04:45:05;;;;;;;20.20;11.85;;;6.60;99.90;;;;;;5009925;28;20056;-61
2022/03/14 04:48:11;;;;;;;16.02;10.48;;;6.60;99.60;;;;;;5009955;28;20045;-61
2022/03/14 04:51:15;;;;;;;18.17;10.90;;;6.40;99.50;;;;;;5009443;28;20045;-61
2022/03/14 04:54:20;;;;;;;17.30;10.50;;;6.30;99.90;;;;;;5012306;28;20041;-61
2022/03/14 04:57:24;;;;;;;20.30;11.82;;;6.20;99.90;;;;;;5013818;28;20385;-61
2022/03/14 05:00:29;;;;;;;22.08;12.05;;;6.20;99.90;;;;;;5013598;28;20232;-61
2022/03/14 05:03:35;;;;;;;25.67;13.90;;;6.20;99.90;;;;;;5013687;28;20045;-61
2022/03/14 05:06:40;;;;;;;20.92;12.55;;;6.20;99.90;;;;;;5013548;28;20041;-60
2022/03/14 05:09:44;;;;;;;20.67;11.93;;;6.30;99.90;;;;;;5013495;28;20527;-60
2022/03/14 05:12:49;;;;;;;20.15;11.98;;;6.30;99.90;;;;;;5012916;28;20041;-61
2022/03/14 05:15:52;;;;;;;23.38;12.85;;;6.40;99.90;;;;;;5013503;28;20045;-61
2022/03/14 05:18:57;;;;;;;22.52;12.45;;;6.50;99.90;;;;;;5013519;28;20045;-60
2022/03/14 05:22:01;;;;;;;22.35;12.68;;;6.50;99.90;;;;;;5012732;28;20500;-61
2022/03/14 05:25:05;;;;;;;22.73;12.30;;;6.50;99.90;;;;;;5013290;28;20048;-62
2022/03/14 05:28:09;;;;;;;16.67;11.15;;;6.50;99.90;;;;;;5012658;28;20044;-61
2022/03/14 05:31:13;;;;;;;22.63;11.35;;;6.50;99.90;;;;;;5012596;28;20052;-61
2022/03/14 05:34:17;;;;;;;17.35;10.20;;;6.50;99.90;;;;;;5013217;28;20045;-61
2022/03/14 05:37:22;;;;;;;15.73;9.60;;;6.50;99.90;;;;;;5023537;28;20040;-61
2022/03/14 05:40:27;;;;;;;16.73;9.52;;;6.40;99.90;;;;;;5013093;28;20061;-61
2022/03/14 05:43:36;;;;;;;16.23;9.90;;;6.40;99.90;;;;;;5012719;28;20519;-61
2022/03/14 05:46:40;;;;;;;16.35;10.13;;;6.40;99.90;;;;;;5012976;28;20044;-60
2022/03/14 05:49:45;;;;;;;15.85;9.68;;;6.50;99.90;;;;;;5012514;28;20049;-61
2022/03/14 05:52:49;;;;;;;19.40;10.48;;;6.50;99.90;;;;;;5012136;28;20045;-61
2022/03/14 05:55:54;;;;;;;21.02;9.75;;;6.40;99.90;;;;;;5012961;28;20409;-61
2022/03/14 05:58:58;;;;;;;18.00;10.63;;;6.50;99.90;;;;;;5012858;28;20053;-62
2022/03/14 06:02:03;;;;;;;19.17;10.65;;;6.60;99.90;;;;;;5012072;28;20048;-61
2022/03/14 06:05:10;;;;;;;17.98;11.52;;;6.60;99.90;;;;;;5012061;28;20037;-62
2022/03/14 06:08:15;;;;;;;23.33;10.52;;;6.80;99.90;;;;;;5012446;28;20048;-60
2022/03/14 06:11:22;;;;;;;19.33;11.27;;;6.90;99.90;;;;;;5012167;28;20045;-61
2022/03/14 06:14:26;;;;;;;19.25;10.18;;;7.00;99.90;;;;;;5012310;28;20416;-60
2022/03/14 06:17:31;;;;;;;23.02;10.68;;;7.10;99.90;;;;;;5012342;28;20040;-60
2022/03/14 06:20:35;;;;;;;23.08;10.38;;;7.10;99.90;;;;;;5011991;28;20508;-60
2022/03/14 06:23:39;;;;;;;27.55;10.77;;;7.30;99.90;;;;;;5011862;28;20041;-61
2022/03/14 06:26:44;;;;;;;18.80;10.98;;;7.40;99.90;;;;;;5012573;28;20048;-61
2022/03/14 06:29:48;;;;;;;16.15;9.77;;;7.60;99.90;;;;;;5011568;28;20061;-61
2022/03/14 06:32:53;;;;;;;15.07;9.68;;;7.70;99.90;;;;;;5012101;28;20057;-61
2022/03/14 06:35:57;;;;;;;21.90;10.00;;;7.90;99.40;;;;;;5013028;28;20049;-61
2022/03/14 06:39:01;;;;;;;18.25;9.98;;;7.90;99.90;;;;;;5012997;28;20476;-60
2022/03/14 06:42:12;;;;;;;16.65;10.80;;;8.10;99.10;;;;;;5012631;28;20056;-61
2022/03/14 06:45:23;;;;;;;19.48;10.80;;;8.20;98.50;;;;;;5011276;28;20060;-61
2022/03/14 06:48:27;;;;;;;15.88;10.10;;;8.20;98.30;;;;;;5012851;28;20041;-61
2022/03/14 06:51:31;;;;;;;20.88;11.13;;;8.30;98.90;;;;;;5011766;28;20041;-61
2022/03/14 06:54:35;;;;;;;26.45;11.05;;;8.40;99.20;;;;;;5011423;28;20044;-61
2022/03/14 06:57:39;;;;;;;20.08;9.80;;;8.50;99.00;;;;;;5010650;28;20062;-61
2022/03/14 07:00:44;;;;;;;14.77;9.73;;;8.70;98.70;;;;;;5021532;28;20571;-61
2022/03/14 07:03:47;;;;;;;17.45;10.40;;;9.00;98.20;;;;;;5012598;28;20529;-62
2022/03/14 07:06:52;;;;;;;17.75;9.55;;;9.40;97.10;;;;;;5011760;28;20036;-61
2022/03/14 07:09:56;;;;;;;16.13;8.68;;;9.80;96.40;;;;;;5011350;28;20049;-61
2022/03/14 07:13:00;;;;;;;15.27;8.45;;;10.10;95.10;;;;;;5011163;28;20041;-61
2022/03/14 07:16:04;;;;;;;15.07;8.70;;;10.40;93.90;;;;;;5010938;28;20053;-61
2022/03/14 07:19:08;;;;;;;14.95;9.18;;;10.60;93.40;;;;;;5011299;28;20049;-60
2022/03/14 07:22:19;;;;;;;15.88;9.10;;;10.90;93.10;;;;;;5010389;28;20045;-61
2022/03/14 07:25:29;;;;;;;11.68;8.15;;;11.60;91.70;;;;;;5010883;28;20507;-61
2022/03/14 07:28:34;;;;;;;13.75;8.45;;;12.40;91.10;;;;;;5011076;28;20052;-61
2022/03/14 07:31:37;;;;;;;11.65;8.20;;;13.20;89.30;;;;;;5010820;28;20049;-61
2022/03/14 07:34:41;;;;;;;14.05;8.40;;;13.60;86.30;;;;;;5010774;28;20045;-61
2022/03/14 07:37:45;;;;;;;12.40;7.90;;;13.40;85.10;;;;;;5019315;28;20052;-62
2022/03/14 07:40:49;;;;;;;13.57;8.88;;;14.10;84.80;;;;;;5028934;28;20048;-62
2022/03/14 07:43:53;;;;;;;13.77;9.18;;;13.90;86.80;;;;;;5025490;28;20044;-62
2022/03/14 07:46:57;;;;;;;15.68;9.13;;;12.80;87.90;;;;;;5010844;28;20049;-61
2022/03/14 07:50:04;;;;;;;11.82;8.20;;;14.50;85.80;;;;;;5022423;28;20044;-62
2022/03/14 07:53:09;;;;;;;13.18;8.07;;;15.50;79.20;;;;;;5030810;28;20381;-62
2022/03/14 07:56:14;;;;;;;12.00;7.85;;;17.50;75.00;;;;;;5030865;28;20044;-62
2022/03/14 07:59:17;;;;;;;12.75;7.55;;;17.90;72.80;;;;;;5027985;28;20396;-61
2022/03/14 08:02:22;;;;;;;10.63;7.57;;;17.10;73.60;;;;;;5027548;28;20479;-62
2022/03/14 08:05:27;;;;;;;12.80;7.57;;;16.50;73.40;;;;;;5030833;28;20048;-62
2022/03/14 08:08:32;;;;;;;14.60;7.30;;;16.50;73.30;;;;;;5030661;28;20052;-62
2022/03/14 08:11:38;;;;;;;15.30;7.80;;;15.50;74.90;;;;;;5029326;28;20048;-63
2022/03/14 08:14:43;;;;;;;12.98;7.85;;;16.30;75.00;;;;;;5029813;28;20040;-62
2022/03/14 08:17:51;;;;;;;11.80;7.85;;;15.40;74.90;;;;;;5027384;28;20080;-61
2022/03/14 08:20:57;;;;;;;17.45;9.15;;;14.50;76.80;;;;;;5029167;28;20040;-62
2022/03/14 08:24:01;;;;;;;14.52;9.00;;;13.40;80.20;;;;;;5025981;28;20503;-62
2022/03/14 08:27:05;;;;;;;14.68;9.60;;;15.10;79.00;;;;;;5023202;28;20040;-62
2022/03/14 08:30:10;;;;;;;15.50;10.00;;;14.70;80.00;;;;;;5033346;28;20044;-62
2022/03/14 08:33:16;;;;;;;14.95;9.65;;;16.20;78.10;;;;;;5034137;28;20044;-62
2022/03/14 08:36:20;;;;;;;12.80;8.48;;;16.00;77.40;;;;;;5033201;28;20048;-62
2022/03/14 08:39:26;;;;;;;16.17;9.30;;;16.30;76.70;;;;;;5032956;28;20070;-62
2022/03/14 08:42:29;;;;;;;10.70;8.15;;;16.50;76.50;;;;;;5033692;28;20060;-62
2022/03/14 08:45:36;;;;;;;16.83;8.60;;;17.40;73.10;;;;;;5033470;28;20068;-63
2022/03/14 08:48:42;;;;;;;12.43;8.82;;;17.80;73.90;;;;;;5028472;28;20052;-63
2022/03/14 08:51:46;;;;;;;15.40;8.55;;;17.80;72.50;;;;;;5032720;28;20036;-62
2022/03/14 08:54:50;;;;;;;12.85;8.43;;;17.90;72.80;;;;;;5028992;28;20079;-62
2022/03/14 08:57:54;;;;;;;15.68;8.35;;;17.90;73.40;;;;;;5029568;28;20483;-62
2022/03/14 09:01:01;;;;;;;13.32;8.82;;;17.80;72.00;;;;;;5031109;28;20040;-62
2022/03/14 09:04:05;;;;;;;13.73;9.20;;;17.40;72.50;;;;;;5032905;28;20121;-62
2022/03/14 09:07:10;;;;;;;18.23;8.75;;;17.80;72.60;;;;;;5030107;28;20048;-62
2022/03/14 09:10:17;;;;;;;14.05;8.52;;;18.10;72.10;;;;;;5031426;28;20389;-62
2022/03/14 09:13:23;;;;;;;12.15;8.05;;;18.40;71.80;;;;;;5032963;28;20041;-63
2022/03/14 09:16:28;;;;;;;13.13;8.43;;;18.90;71.30;;;;;;5031394;28;20480;-62
2022/03/14 09:19:34;;;;;;;12.48;7.55;;;19.40;71.40;;;;;;5026629;28;20049;-62
2022/03/14 09:22:38;;;;;;;15.23;8.30;;;19.80;69.90;;;;;;5026220;28;20484;-63
2022/03/14 09:25:42;;;;;;;10.73;7.97;;;19.80;68.80;;;;;;5024952;28;20052;-62
2022/03/14 09:28:48;;;;;;;10.43;7.68;;;19.80;68.90;;;;;;5020434;28;20049;-62
2022/03/14 09:31:52;;;;;;;13.30;7.32;;;19.90;68.70;;;;;;5025841;28;20060;-63
2022/03/14 09:34:59;;;;;;;14.40;7.22;;;20.50;67.80;;;;;;5023748;28;21099;-63
2022/03/14 09:38:03;;;;;;;13.77;7.07;;;20.80;67.60;;;;;;5021225;28;20052;-62
2022/03/14 09:41:08;;;;;;;17.00;6.88;;;21.60;66.10;;;;;;5024856;28;20045;-63
2022/03/14 09:44:17;;;;;;;19.90;7.45;;;21.30;64.60;;;;;;5027039;28;20028;-62
2022/03/14 09:47:24;;;;;;;16.63;7.82;;;21.80;65.10;;;;;;5027702;28;20091;-60
2022/03/14 09:50:39;;;;;;;10.85;7.13;;;22.10;63.60;;;;;;5027361;28;20566;-59
2022/03/14 09:53:44;;;;;;;11.30;6.80;;;21.10;64.20;;;;;;5022866;28;20397;-62
2022/03/14 09:56:49;;;;;;;10.15;6.90;;;21.30;63.20;;;;;;5023852;28;20048;-63
2022/03/14 09:59:54;;;;;;;10.50;6.60;;;22.70;63.30;;;;;;5028927;28;20052;-63
2022/03/14 10:03:00;;;;;;;9.23;6.70;;;24.90;62.20;;;;;;5028655;28;20052;-64
2022/03/14 10:06:04;;;;;;;10.15;6.72;;;26.20;59.40;;;;;;5028659;28;20037;-63
2022/03/14 10:09:09;;;;;;;11.30;6.20;;;27.60;57.80;;;;;;5021502;28;20068;-61
2022/03/14 10:12:14;;;;;;;7.20;5.68;;;28.20;56.40;;;;;;5023457;28;20511;-60
2022/03/14 10:15:21;;;;;;;8.88;5.28;;;28.10;52.90;;;;;;5023197;28;20057;-60
2022/03/14 10:18:25;;;;;;;7.55;5.47;;;27.70;54.30;;;;;;5028838;28;20109;-61
2022/03/14 10:21:35;;;;;;;11.00;6.32;;;26.80;54.30;;;;;;5026131;28;20036;-61
2022/03/14 10:24:40;;;;;;;7.68;5.45;;;27.70;52.10;;;;;;5028432;28;20040;-61
2022/03/14 10:27:56;;;;;;;15.88;5.65;;;28.70;53.70;;;;;;5030282;28;20045;-61
2022/03/14 10:31:02;;;;;;;7.57;5.00;;;32.20;51.80;;;;;;5027579;28;20044;-62
2022/03/14 10:34:18;;;;;;;8.70;5.78;;;27.70;50.20;;;;;;5022259;28;20507;-61
2022/03/14 10:37:25;;;;;;;9.80;5.35;;;29.70;51.30;;;;;;5021098;28;20044;-64
2022/03/14 10:40:31;;;;;;;8.70;5.55;;;30.70;49.10;;;;;;5028014;28;20044;-64
2022/03/14 10:43:38;;;;;;;9.45;5.53;;;30.40;48.70;;;;;;5024760;28;20059;-61
2022/03/14 10:46:44;;;;;;;7.13;5.22;;;29.40;47.50;;;;;;5024567;28;20044;-61
2022/03/14 10:49:49;;;;;;;9.63;5.50;;;31.50;48.80;;;;;;5026458;28;20056;-61
2022/03/14 10:53:09;;;;;;;7.82;5.03;;;29.40;46.80;;;;;;5030533;28;20052;-62
2022/03/14 10:56:15;;;;;;;;;;;31.20;47.40;;;;;;5032149;28;20503;-61
2022/03/14 10:59:32;;;;;;;7.70;5.47;;;33.20;47.30;;;;;;5025099;28;19909;-61
2022/03/14 11:02:36;;;;;;;8.45;4.53;;;33.50;44.90;;;;;;5027103;28;20053;-61
2022/03/14 11:05:51;;;;;;;7.13;5.10;;;33.30;44.00;;;;;;5028994;28;20048;-60
2022/03/14 11:08:59;;;;;;;6.22;4.88;;;31.80;44.20;;;;;;5019112;28;20036;-61
2022/03/14 11:12:11;;;;;;;6.28;4.13;;;31.20;42.80;;;;;;5026416;28;20491;-61
2022/03/14 11:15:16;;;;;;;8.90;4.68;;;33.30;42.70;;;;;;5029676;28;20056;-61
2022/03/14 11:18:22;;;;;;;7.00;4.55;;;29.60;43.30;;;;;;5029702;28;20048;-61
2022/03/14 11:21:27;;;;;;;9.93;4.63;;;31.10;44.10;;;;;;5029505;28;20037;-62
2022/03/14 11:24:32;;;;;;;6.68;5.05;;;32.30;44.10;;;;;;5030631;28;20056;-62
2022/03/14 11:27:37;;;;;;;7.20;4.60;;;30.90;43.80;;;;;;5030234;28;20045;-62
2022/03/14 11:30:46;;;;;;;9.30;5.00;;;33.50;45.00;;;;;;5024199;28;20052;-61
2022/03/14 11:33:50;;;;;;;7.25;4.57;;;34.40;44.00;;;;;;5014115;28;20499;-62
2022/03/14 11:36:56;;;;;;;8.05;4.30;;;35.60;44.10;;;;;;5016194;28;20044;-62
2022/03/14 11:40:05;;;;;;;6.05;4.28;;;34.20;41.90;;;;;;5023661;28;20493;-62
2022/03/14 11:43:10;;;;;;;5.82;4.15;;;34.30;42.50;;;;;;5029383;28;20044;-62
2022/03/14 11:46:15;;;;;;;4.70;4.03;;;34.80;42.90;;;;;;5025098;28;20479;-62
2022/03/14 11:49:26;;;;;;;6.35;4.10;;;36.40;42.70;;;;;;5029621;28;20056;-62
2022/03/14 11:52:35;;;;;;;7.22;3.85;;;37.70;41.60;;;;;;5029524;28;20048;-62
2022/03/14 11:55:51;;;;;;;8.90;4.00;;;38.00;41.30;;;;;;5030080;28;20040;-62
2022/03/14 11:58:58;;;;;;;10.68;3.70;;;33.10;41.10;;;;;;5026893;28;20037;-62
2022/03/14 12:02:07;;;;;;;7.25;3.65;;;31.80;42.60;;;;;;5026050;28;20120;-62
2022/03/14 12:05:12;;;;;;;8.65;4.40;;;33.30;43.40;;;;;;5025364;28;20052;-61
2022/03/14 12:08:25;;;;;;;6.45;4.20;;;33.30;43.50;;;;;;5027216;28;20403;-62
2022/03/14 12:11:35;;;;;;;6.43;3.78;;;33.90;43.50;;;;;;5030209;28;20040;-62
2022/03/14 12:14:55;;;;;;;4.25;3.58;;;34.80;42.30;;;;;;5027990;28;20037;-62
2022/03/14 12:17:59;;;;;;;5.03;3.70;;;31.30;42.60;;;;;;5025480;28;20056;-62
2022/03/14 12:21:41;;;;;;;5.78;3.90;;;31.00;42.90;;;;;;5029767;28;20048;-62
2022/03/14 12:24:48;;;;;;;6.20;3.78;;;31.30;43.10;;;;;;5030457;28;20044;-61
2022/03/14 12:27:53;;;;;;;6.22;3.83;;;31.00;44.10;;;;;;5029145;28;20049;-62
2022/03/14 12:30:58;;;;;;;5.38;3.88;;;31.60;43.60;;;;;;5023727;28;20044;-62
2022/03/14 12:34:10;;;;;;;6.43;3.97;;;29.50;43.70;;;;;;5024037;28;20056;-62
2022/03/14 12:37:35;;;;;;;4.13;3.60;;;31.60;43.90;;;;;;5026195;28;20040;-62
2022/03/14 12:40:42;;;;;;;8.68;4.07;;;34.10;43.20;;;;;;5028650;28;20631;-63
2022/03/14 12:43:46;;;;;;;5.85;3.80;;;34.90;42.40;;;;;;5029988;28;20396;-63
2022/03/14 12:46:58;;;;;;;10.40;5.13;;;35.60;41.20;;;;;;5029096;28;20503;-62
2022/03/14 12:50:03;;;;;;;8.25;5.05;;;28.20;43.50;;;;;;5028808;28;20504;-62
2022/03/14 12:53:07;;;;;;;8.20;5.30;;;27.00;45.90;;;;;;5023538;28;20041;-62
2022/03/14 12:56:20;;;;;;;6.65;5.38;;;23.70;47.50;;;;;;5029176;28;20393;-61
2022/03/14 12:59:27;;;;;;;7.05;5.07;;;25.80;47.70;;;;;;5025026;28;20040;-62
2022/03/14 13:02:32;;;;;;;8.68;4.72;;;28.00;45.60;;;;;;5025715;28;20060;-62
2022/03/14 13:05:42;;;;;;;5.13;4.43;;;30.30;44.30;;;;;;5027362;28;20044;-62
2022/03/14 13:08:48;;;;;;;11.48;5.25;;;30.70;43.80;;;;;;5026475;28;20049;-62
2022/03/14 13:11:57;;;;;;;6.50;5.22;;;30.80;43.40;;;;;;5017125;28;20057;-62
2022/03/14 13:15:09;;;;;;;8.82;4.40;;;31.20;43.50;;;;;;5029533;28;20040;-62
2022/03/14 13:18:19;;;;;;;6.63;4.43;;;32.20;43.10;;;;;;5028681;28;20037;-62
2022/03/14 13:21:25;;;;;;;9.15;4.35;;;32.70;43.00;;;;;;5031249;28;20048;-62
2022/03/14 13:24:29;;;;;;;7.10;4.60;;;32.70;42.70;;;;;;5032145;28;20393;-62
2022/03/14 13:27:34;;;;;;;6.78;4.53;;;32.80;42.80;;;;;;5028016;28;20060;-62
2022/03/14 13:30:45;;;;;;;6.25;4.38;;;32.00;43.30;;;;;;5031000;28;20044;-62
2022/03/14 13:33:50;;;;;;;8.43;5.20;;;28.80;44.00;;;;;;5033062;28;20048;-62
2022/03/14 13:37:04;;;;;;;8.00;4.60;;;28.00;46.10;;;;;;5033266;28;20044;-62
2022/03/14 13:40:16;;;;;;;6.30;3.97;;;29.20;45.60;;;;;;5031559;28;20048;-62
2022/03/14 13:43:21;;;;;;;5.93;3.60;;;29.90;44.50;;;;;;5028892;28;20056;-62
2022/03/14 13:46:33;;;;;;;3.58;3.15;;;29.20;46.30;;;;;;5032346;28;20045;-62
2022/03/14 13:49:40;;;;;;;;;;;26.90;45.20;;;;;;5013408;28;20499;-62
2022/03/14 13:52:51;;;;;;;3.88;3.25;;;27.20;46.20;;;;;;5030248;28;19913;-62
2022/03/14 13:55:57;;;;;;;5.70;3.22;;;26.90;46.80;;;;;;5029879;28;20025;-62
2022/03/14 13:59:01;;;;;;;5.68;3.33;;;24.60;48.20;;;;;;5030627;28;20036;-62
2022/03/14 14:02:08;;;;;;;5.90;3.20;;;26.50;47.20;;;;;;5027914;28;20072;-62
2022/03/14 14:05:14;;;;;;;6.18;3.90;;;25.80;47.50;;;;;;5031360;28;20342;-61
2022/03/14 14:08:36;;;;;;;4.95;3.20;;;25.60;47.70;;;;;;5031764;28;20384;-62
2022/03/14 14:12:15;;;;;;;3.42;2.90;;;28.10;47.80;;;;;;5023494;28;20057;-62
2022/03/14 14:15:19;;;;;;;7.10;3.20;;;29.80;46.10;;;;;;5027267;28;20559;-62
2022/03/14 14:18:25;;;;;;;4.97;3.00;;;28.20;46.40;;;;;;5034654;28;20071;-61
2022/03/14 14:21:29;;;;;;;13.00;3.28;;;29.20;46.00;;;;;;5030882;28;20558;-61
2022/03/14 14:24:33;;;;;;;13.27;4.15;;;26.00;46.20;;;;;;5018320;28;20040;-61
2022/03/14 14:28:00;;;;;;;6.20;3.67;;;25.90;48.80;;;;;;5027738;28;20052;-62
2022/03/14 14:31:04;;;;;;;6.95;3.78;;;25.90;47.30;;;;;;5021921;28;20052;-61
2022/03/14 14:34:08;;;;;;;7.28;3.95;;;23.50;49.20;;;;;;5031935;28;20044;-62
2022/03/14 14:37:12;;;;;;;6.72;3.83;;;25.20;47.70;;;;;;5032317;28;20049;-61
2022/03/14 14:40:16;;;;;;;7.38;4.07;;;23.70;48.50;;;;;;5031843;28;20040;-62
2022/03/14 14:43:22;;;;;;;5.15;3.60;;;24.60;48.70;;;;;;5032378;28;20492;-62
2022/03/14 14:46:26;;;;;;;5.38;3.78;;;26.10;48.10;;;;;;5012524;28;20728;-62
2022/03/14 14:49:30;;;;;;;7.25;3.35;;;27.40;47.30;;;;;;5025877;28;20596;-62
2022/03/14 14:52:35;;;;;;;5.43;3.47;;;28.00;46.20;;;;;;5030010;28;20037;-62
2022/03/14 14:55:41;;;;;;;6.38;3.00;;;28.60;46.60;;;;;;5030642;28;20040;-62
2022/03/14 14:58:50;;;;;;;4.45;3.65;;;27.60;46.00;;;;;;5030837;28;20487;-62
2022/03/14 15:01:54;;;;;;;5.70;3.38;;;27.40;46.50;;;;;;5030046;28;20044;-62
2022/03/14 15:05:02;;;;;;;4.20;3.45;;;27.40;47.20;;;;;;5030954;28;20036;-62
2022/03/14 15:08:06;;;;;;;4.40;3.00;;;26.30;47.60;;;;;;5025293;28;20044;-62
2022/03/14 15:11:11;;;;;;;6.70;3.35;;;26.30;47.50;;;;;;5028502;28;20669;-62
2022/03/14 15:14:15;;;;;;;7.43;3.55;;;25.50;47.50;;;;;;5024349;28;20056;-62
2022/03/14 15:17:20;;;;;;;5.05;3.47;;;24.20;48.00;;;;;;5027077;28;20057;-62
2022/03/14 15:20:25;;;;;;;4.32;3.08;;;21.50;51.00;;;;;;5024010;28;20048;-62
2022/03/14 15:23:28;;;;;;;8.25;3.47;;;20.80;51.90;;;;;;5029352;28;20048;-61
2022/03/14 15:26:32;;;;;;;8.52;4.45;;;21.20;52.40;;;;;;5028739;28;20053;-60
2022/03/14 15:29:38;;;;;;;5.43;3.53;;;21.40;51.60;;;;;;5027274;28;20483;-61
2022/03/14 15:32:44;;;;;;;7.97;3.83;;;21.70;52.10;;;;;;5028171;28;20048;-61
2022/03/14 15:35:49;;;;;;;7.63;3.97;;;22.20;51.50;;;;;;5031830;28;20048;-61
2022/03/14 15:38:53;;;;;;;5.10;3.65;;;21.70;49.90;;;;;;5022920;28;20480;-62
2022/03/14 15:41:58;;;;;;;7.22;3.70;;;21.90;50.60;;;;;;5029349;28;20041;-61
2022/03/14 15:45:03;;;;;;;5.43;3.20;;;22.30;49.90;;;;;;5030365;28;20048;-62
2022/03/14 15:48:08;;;;;;;7.53;4.10;;;22.50;49.70;;;;;;5026768;28;20049;-61
2022/03/14 15:51:12;;;;;;;5.65;3.67;;;22.30;50.40;;;;;;5028483;28;20052;-61
2022/03/14 15:54:17;;;;;;;5.28;3.85;;;22.40;50.60;;;;;;5030343;28;20049;-60
2022/03/14 15:57:21;;;;;;;8.50;3.50;;;22.30;50.90;;;;;;5028729;28;20051;-61
2022/03/14 16:00:25;;;;;;;6.13;3.55;;;22.00;51.20;;;;;;5031008;28;20510;-61